createdAt,value
2022-09-23T00:01:28.204Z,101619.84
2022-09-23T00:03:56.377Z,101613.41
2022-09-23T00:06:24.386Z,101620.25
2022-09-23T00:08:52.284Z,101613.81
2022-09-23T00:11:26.691Z,101609.38
2022-09-23T00:13:56.887Z,101604.09
2022-09-23T00:16:29.118Z,101601.97
2022-09-23T00:19:01.467Z,101604.59
2022-09-23T00:21:29.472Z,101604.31
2022-09-23T00:23:56.275Z,101605.69
2022-09-23T00:26:25.141Z,101599.66
2022-09-23T00:28:56.772Z,101599.19
2022-09-23T00:31:27.522Z,101604.16
2022-09-23T00:33:56.872Z,101600.28
2022-09-23T00:36:25.226Z,101597.84
2022-09-23T00:38:53.466Z,101594.16
2022-09-23T00:41:21.530Z,101592.47
2022-09-23T00:43:56.741Z,101589.50
2022-09-23T00:46:36.431Z,101591.81
2022-09-23T00:49:15.630Z,101587.22
2022-09-23T00:52:02.771Z,101595.31
2022-09-23T00:54:32.483Z,101584.72
2022-09-23T00:57:01.320Z,101576.47
2022-09-23T00:59:29.163Z,101578.16
2022-09-23T01:02:01.259Z,101583.81
2022-09-23T01:04:30.043Z,101576.63
2022-09-23T01:06:57.004Z,101572.50
2022-09-23T01:09:25.206Z,101573.47
2022-09-23T01:12:12.833Z,101565.44
2022-09-23T01:15:04.660Z,101561.44
2022-09-23T01:17:53.316Z,101563.50
2022-09-23T01:20:43.116Z,101557.47
2022-09-23T01:24:13.224Z,101557.13
2022-09-23T01:26:49.488Z,101546.88
2022-09-23T01:29:59.631Z,101546.34
2022-09-23T01:32:47.792Z,101534.88
2022-09-23T01:35:23.856Z,101543.41
2022-09-23T01:37:58.038Z,101541.16
2022-09-23T01:40:45.239Z,101545.44
2022-09-23T01:43:36.404Z,101535.97
2022-09-23T01:46:19.879Z,101541.47
2022-09-23T01:49:20.572Z,101533.47
2022-09-23T01:51:57.239Z,101526.84
2022-09-23T01:54:45.574Z,101525.91
2022-09-23T01:57:27.837Z,101524.75
2022-09-23T02:00:05.819Z,101530.34
2022-09-23T02:02:49.857Z,101524.31
2022-09-23T02:05:24.577Z,101524.81
2022-09-23T02:08:14.361Z,101524.47
2022-09-23T02:10:58.907Z,101515.09
2022-09-23T02:13:25.835Z,101519.69
2022-09-23T02:15:58.544Z,101509.03
2022-09-23T02:18:34.504Z,101511.50
2022-09-23T02:21:06.926Z,101515.78
2022-09-23T02:23:47.218Z,101514.22
2022-09-23T02:26:41.317Z,101502.69
2022-09-23T02:29:24.888Z,101502.91
2022-09-23T02:32:20.538Z,101491.59
2022-09-23T02:35:33.303Z,101491.81
2022-09-23T02:38:44.667Z,101490.50
2022-09-23T02:42:05.972Z,101484.53
2022-09-23T02:44:36.336Z,101480.25
2022-09-23T02:47:03.576Z,101482.66
2022-09-23T02:49:32.897Z,101475.59
2022-09-23T02:52:07.642Z,101478.94
2022-09-23T02:54:35.503Z,101478.31
2022-09-23T02:57:10.289Z,101474.91
2022-09-23T02:59:38.245Z,101471.34
2022-09-23T03:02:14.403Z,101461.47
2022-09-23T03:05:06.733Z,101458.16
2022-09-23T03:07:55.306Z,101461.88
2022-09-23T03:10:42.936Z,101463.56
2022-09-23T03:13:42.830Z,101458.47
2022-09-23T03:16:21.809Z,101458.91
2022-09-23T03:19:03.619Z,101453.78
2022-09-23T03:22:00.843Z,101453.41
2022-09-23T03:24:34.515Z,101456.94
2022-09-23T03:27:13.571Z,101452.22
2022-09-23T03:29:47.232Z,101440.97
2022-09-23T03:32:22.147Z,101450.56
2022-09-23T03:34:52.461Z,101441.00
2022-09-23T03:37:31.436Z,101435.78
2022-09-23T03:40:20.960Z,101432.50
2022-09-23T03:42:49.125Z,101439.63
2022-09-23T03:45:26.642Z,101432.41
2022-09-23T03:47:56.244Z,101433.94
2022-09-23T03:50:25.800Z,101425.66
2022-09-23T03:52:53.300Z,101421.91
2022-09-23T03:55:21.267Z,101428.19
2022-09-23T03:57:51.059Z,101429.56
2022-09-23T04:00:20.339Z,101428.78
2022-09-23T04:02:47.218Z,101428.13
2022-09-23T04:05:14.970Z,101419.28
2022-09-23T04:07:42.652Z,101418.22
2022-09-23T04:10:10.388Z,101409.66
2022-09-23T04:12:40.194Z,101414.50
2022-09-23T04:15:07.854Z,101410.13
2022-09-23T04:17:34.844Z,101406.22
2022-09-23T04:20:02.147Z,101404.06
2022-09-23T04:22:29.037Z,101402.19
2022-09-23T04:24:56.323Z,101403.09
2022-09-23T04:27:23.359Z,101394.03
2022-09-23T04:29:50.430Z,101393.09
2022-09-23T04:32:20.805Z,101388.50
2022-09-23T04:34:47.779Z,101397.88
2022-09-23T04:37:17.233Z,101390.31
2022-09-23T04:39:44.299Z,101392.34
2022-09-23T04:42:11.188Z,101397.44
2022-09-23T04:44:38.945Z,101388.50
2022-09-23T04:47:08.496Z,101401.31
2022-09-23T04:49:38.410Z,101391.06
2022-09-23T04:52:07.803Z,101389.03
2022-09-23T04:54:34.930Z,101390.81
2022-09-23T04:57:04.305Z,101388.28
2022-09-23T04:59:35.913Z,101391.22
2022-09-23T05:02:02.853Z,101387.22
2022-09-23T05:04:36.296Z,101392.59
2022-09-23T05:07:03.927Z,101388.22
2022-09-23T05:09:33.628Z,101381.72
2022-09-23T05:12:02.743Z,101384.22
2022-09-23T05:14:29.871Z,101376.66
2022-09-23T05:16:56.854Z,101388.22
2022-09-23T05:19:27.022Z,101390.47
2022-09-23T05:21:56.181Z,101389.94
2022-09-23T05:24:25.207Z,101387.72
2022-09-23T05:26:52.515Z,101391.59
2022-09-23T05:29:22.435Z,101383.50
2022-09-23T05:31:52.453Z,101386.69
2022-09-23T05:34:23.294Z,101380.09
2022-09-23T05:36:50.608Z,101375.50
2022-09-23T05:39:17.480Z,101384.28
2022-09-23T05:41:44.541Z,101387.84
2022-09-23T05:44:11.604Z,101386.50
2022-09-23T05:46:40.797Z,101396.41
2022-09-23T05:49:10.595Z,101381.66
2022-09-23T05:51:37.809Z,101371.94
2022-09-23T05:54:06.142Z,101378.47
2022-09-23T05:56:37.234Z,101378.81
2022-09-23T05:59:07.087Z,101373.53
2022-09-23T06:01:36.778Z,101372.38
2022-09-23T06:04:07.583Z,101375.63
2022-09-23T06:06:42.754Z,101376.09
2022-09-23T06:09:15.109Z,101373.75
2022-09-23T06:11:46.754Z,101367.66
2022-09-23T06:14:17.307Z,101375.56
2022-09-23T06:16:46.263Z,101384.16
2022-09-23T06:19:13.312Z,101381.59
2022-09-23T06:21:41.019Z,101373.59
2022-09-23T06:24:16.959Z,101380.19
2022-09-23T06:26:45.881Z,101380.53
2022-09-23T06:29:12.793Z,101377.16
2022-09-23T06:31:43.317Z,101379.03
2022-09-23T06:34:14.582Z,101382.03
2022-09-23T06:36:45.311Z,101377.38
2022-09-23T06:39:14.996Z,101368.16
2022-09-23T06:41:42.202Z,101365.16
2022-09-23T06:44:09.395Z,101370.63
2022-09-23T06:46:37.255Z,101370.53
2022-09-23T06:49:04.223Z,101374.59
2022-09-23T06:51:31.476Z,101379.50
2022-09-23T06:54:00.808Z,101373.47
2022-09-23T06:56:32.533Z,101378.13
2022-09-23T06:59:05.655Z,101381.81
2022-09-23T07:01:35.751Z,101377.19
2022-09-23T07:04:05.358Z,101379.28
2022-09-23T07:06:32.590Z,101377.25
2022-09-23T07:09:01.162Z,101381.81
2022-09-23T07:11:32.667Z,101376.41
2022-09-23T07:13:59.741Z,101376.41
2022-09-23T07:16:29.042Z,101365.97
2022-09-23T07:19:01.332Z,101367.91
2022-09-23T07:21:28.437Z,101368.47
2022-09-23T07:23:58.007Z,101369.50
2022-09-23T07:26:25.828Z,101375.13
2022-09-23T07:28:57.062Z,101364.59
2022-09-23T07:31:38.226Z,101378.44
2022-09-23T07:34:08.052Z,101373.66
2022-09-23T07:36:40.811Z,101383.56
2022-09-23T07:39:14.718Z,101381.03
2022-09-23T07:41:44.601Z,101381.75
2022-09-23T07:44:21.928Z,101370.16
2022-09-23T07:46:52.858Z,101373.59
2022-09-23T07:49:20.579Z,101382.50
2022-09-23T07:51:51.203Z,101370.03
2022-09-23T07:54:21.225Z,101373.88
2022-09-23T07:56:51.027Z,101375.25
2022-09-23T07:59:18.966Z,101370.47
2022-09-23T08:01:57.340Z,101379.94
2022-09-23T08:04:31.033Z,101389.72
2022-09-23T08:07:04.724Z,101376.03
2022-09-23T08:09:41.488Z,101376.44
2022-09-23T08:12:16.385Z,101384.06
2022-09-23T08:14:45.709Z,101380.63
2022-09-23T08:17:13.882Z,101389.72
2022-09-23T08:19:41.036Z,101386.56
2022-09-23T08:22:17.736Z,101378.31
2022-09-23T08:24:46.806Z,101381.53
2022-09-23T08:27:16.704Z,101386.34
2022-09-23T08:29:43.787Z,101378.97
2022-09-23T08:32:10.889Z,101371.22
2022-09-23T08:34:37.976Z,101380.44
2022-09-23T08:37:08.993Z,101379.78
2022-09-23T08:39:36.043Z,101366.66
2022-09-23T08:42:18.977Z,101372.63
2022-09-23T08:44:55.483Z,101370.97
2022-09-23T08:47:22.356Z,101361.91
2022-09-23T08:50:00.508Z,101368.69
2022-09-23T08:53:10.880Z,101369.38
2022-09-23T08:55:47.750Z,101358.97
2022-09-23T08:58:26.990Z,101364.03
2022-09-23T09:01:24.880Z,101363.31
2022-09-23T09:04:01.227Z,101366.56
2022-09-23T09:06:52.852Z,101360.13
2022-09-23T09:09:30.873Z,101365.50
2022-09-23T09:12:27.254Z,101364.69
2022-09-23T09:15:14.607Z,101358.66
2022-09-23T09:18:08.063Z,101357.28
2022-09-23T09:20:51.858Z,101350.56
2022-09-23T09:23:22.948Z,101356.94
2022-09-23T09:25:57.558Z,101342.66
2022-09-23T09:28:39.243Z,101347.94
2022-09-23T09:31:24.790Z,101351.28
2022-09-23T09:34:16.922Z,101344.41
2022-09-23T09:36:50.333Z,101337.06
2022-09-23T09:39:17.923Z,101343.84
2022-09-23T09:41:52.178Z,101334.81
2022-09-23T09:44:40.502Z,101342.63
2022-09-23T09:47:51.187Z,101337.53
2022-09-23T09:50:49.448Z,101329.91
2022-09-23T09:53:24.079Z,101326.91
2022-09-23T09:56:05.300Z,101326.31
2022-09-23T09:58:51.967Z,101321.25
2022-09-23T10:01:26.129Z,101313.50
2022-09-23T10:03:59.163Z,101312.13
2022-09-23T10:06:39.921Z,101303.41
2022-09-23T10:09:19.555Z,101307.28
2022-09-23T10:12:15.980Z,101309.97
2022-09-23T10:14:44.427Z,101304.22
2022-09-23T10:17:39.167Z,101298.19
2022-09-23T10:20:14.680Z,101299.00
2022-09-23T10:22:46.479Z,101299.44
2022-09-23T10:25:21.651Z,101307.25
2022-09-23T10:27:48.567Z,101303.22
2022-09-23T10:30:15.690Z,101298.84
2022-09-23T10:32:48.564Z,101300.22
2022-09-23T10:35:21.092Z,101291.66
2022-09-23T10:37:59.949Z,101296.25
2022-09-23T10:40:48.525Z,101297.16
2022-09-23T10:44:09.826Z,101296.97
2022-09-23T10:46:49.195Z,101282.25
2022-09-23T10:49:48.986Z,101284.16
2022-09-23T10:52:37.009Z,101280.69
2022-09-23T10:55:25.782Z,101279.31
2022-09-23T10:58:43.890Z,101274.38
2022-09-23T11:01:49.281Z,101268.97
2022-09-23T11:04:52.946Z,101267.66
2022-09-23T11:07:49.379Z,101259.59
2022-09-23T11:10:57.640Z,101267.91
2022-09-23T11:13:30.355Z,101256.31
2022-09-23T11:16:21.159Z,101248.06
2022-09-23T11:18:55.644Z,101249.09
2022-09-23T11:22:16.027Z,101237.53
2022-09-23T11:25:24.078Z,101236.91
2022-09-23T11:28:03.722Z,101234.16
2022-09-23T11:31:06.602Z,101226.44
2022-09-23T11:34:16.355Z,101214.84
2022-09-23T11:36:50.900Z,101212.56
2022-09-23T11:39:36.280Z,101220.97
2022-09-23T11:42:10.770Z,101215.63
2022-09-23T11:44:44.852Z,101208.34
2022-09-23T11:47:21.155Z,101208.66
2022-09-23T11:50:27.222Z,101204.00
2022-09-23T11:53:22.820Z,101203.50
2022-09-23T11:55:58.815Z,101190.38
2022-09-23T11:58:37.612Z,101199.94
2022-09-23T12:01:16.867Z,101187.63
2022-09-23T12:04:14.349Z,101185.56
2022-09-23T12:07:13.685Z,101176.78
2022-09-23T12:10:06.484Z,101182.88
2022-09-23T12:12:54.247Z,101167.63
2022-09-23T12:15:33.412Z,101173.16
2022-09-23T12:18:23.563Z,101162.75
2022-09-23T12:21:38.815Z,101166.78
2022-09-23T12:24:33.101Z,101166.94
2022-09-23T12:27:11.097Z,101158.84
2022-09-23T12:29:42.237Z,101147.72
2022-09-23T12:32:18.609Z,101161.16
2022-09-23T12:34:52.488Z,101149.00
2022-09-23T12:37:35.611Z,101143.06
2022-09-23T12:40:23.084Z,101161.34
2022-09-23T12:42:52.565Z,101153.84
2022-09-23T12:45:40.582Z,101154.47
2022-09-23T12:48:25.709Z,101143.69
2022-09-23T12:51:13.398Z,101145.09
2022-09-23T12:53:50.860Z,101144.06
2022-09-23T12:56:28.955Z,101138.59
2022-09-23T12:59:21.657Z,101126.44
2022-09-23T13:01:48.900Z,101137.88
2022-09-23T13:05:10.116Z,101136.44
2022-09-23T13:07:48.115Z,101139.97
2022-09-23T13:10:32.829Z,101127.75
2022-09-23T13:13:02.531Z,101127.34
2022-09-23T13:15:36.133Z,101123.78
2022-09-23T13:18:21.661Z,101117.41
2022-09-23T13:20:51.126Z,101119.66
2022-09-23T13:23:23.574Z,101111.38
2022-09-23T13:25:56.733Z,101113.44
2022-09-23T13:29:00.389Z,101119.97
2022-09-23T13:31:27.640Z,101112.75
2022-09-23T13:34:05.034Z,101117.00
2022-09-23T13:36:48.046Z,101106.13
2022-09-23T13:39:27.667Z,101109.38
2022-09-23T13:42:01.706Z,101109.19
2022-09-23T13:44:30.082Z,101101.13
2022-09-23T13:47:03.505Z,101096.19
2022-09-23T13:49:36.663Z,101099.03
2022-09-23T13:52:04.598Z,101101.72
2022-09-23T13:54:49.827Z,101101.63
2022-09-23T13:57:34.520Z,101099.88
2022-09-23T14:00:25.502Z,101091.34
2022-09-23T14:02:57.022Z,101103.56
2022-09-23T14:05:33.886Z,101096.19
2022-09-23T14:08:03.503Z,101088.78
2022-09-23T14:10:31.256Z,101081.22
2022-09-23T14:12:59.510Z,101085.06
2022-09-23T14:15:27.088Z,101079.63
2022-09-23T14:18:03.691Z,101079.63
2022-09-23T14:20:34.304Z,101072.06
2022-09-23T14:23:15.460Z,101071.84
2022-09-23T14:25:47.035Z,101074.28
2022-09-23T14:28:23.715Z,101078.66
2022-09-23T14:30:54.548Z,101075.28
2022-09-23T14:33:33.529Z,101068.00
2022-09-23T14:36:28.642Z,101071.91
2022-09-23T14:39:09.048Z,101073.97
2022-09-23T14:41:43.865Z,101067.09
2022-09-23T14:44:28.355Z,101061.63
2022-09-23T14:47:01.351Z,101058.88
2022-09-23T14:49:28.507Z,101063.78
2022-09-23T14:52:00.572Z,101059.34
2022-09-23T14:54:37.654Z,101060.63
2022-09-23T14:57:29.700Z,101059.88
2022-09-23T15:00:29.443Z,101054.25
2022-09-23T15:03:14.635Z,101060.69
2022-09-23T15:05:50.750Z,101061.63
2022-09-23T15:08:23.194Z,101061.97
2022-09-23T15:10:50.711Z,101055.84
2022-09-23T15:13:45.550Z,101051.94
2022-09-23T15:16:15.603Z,101048.31
2022-09-23T15:18:54.279Z,101045.41
2022-09-23T15:21:25.025Z,101049.69
2022-09-23T15:23:55.085Z,101049.06
2022-09-23T15:26:26.513Z,101047.19
2022-09-23T15:28:58.641Z,101053.94
2022-09-23T15:31:27.982Z,101052.72
2022-09-23T15:33:56.065Z,101047.19
2022-09-23T15:36:30.705Z,101038.00
2022-09-23T15:39:05.366Z,101042.53
2022-09-23T15:41:36.029Z,101045.31
2022-09-23T15:44:13.275Z,101047.53
2022-09-23T15:46:52.162Z,101041.75
2022-09-23T15:49:39.189Z,101041.03
2022-09-23T15:52:10.267Z,101044.28
2022-09-23T15:54:38.368Z,101041.31
2022-09-23T15:57:05.597Z,101043.59
2022-09-23T15:59:33.082Z,101033.25
2022-09-23T16:02:05.901Z,101031.13
2022-09-23T16:04:36.264Z,101041.44
2022-09-23T16:07:05.259Z,101047.94
2022-09-23T16:09:32.404Z,101041.50
2022-09-23T16:12:03.502Z,101035.50
2022-09-23T16:14:33.260Z,101031.31
2022-09-23T16:17:05.222Z,101033.38
2022-09-23T16:19:34.285Z,101034.06
2022-09-23T16:22:01.785Z,101023.44
2022-09-23T16:24:29.396Z,101018.81
2022-09-23T16:27:00.241Z,101025.66
2022-09-23T16:29:29.707Z,101021.13
2022-09-23T16:32:01.049Z,101021.47
2022-09-23T16:34:28.787Z,101015.91
2022-09-23T16:36:56.242Z,101015.53
2022-09-23T16:39:23.401Z,101016.88
2022-09-23T16:41:50.594Z,101014.34
2022-09-23T16:44:17.739Z,101018.16
2022-09-23T16:46:44.812Z,101022.81
2022-09-23T16:49:16.711Z,101019.72
2022-09-23T16:51:43.956Z,101027.94
2022-09-23T16:54:13.213Z,101013.16
2022-09-23T16:56:44.265Z,101017.22
2022-09-23T16:59:15.976Z,101018.13
2022-09-23T17:02:04.511Z,101016.22
2022-09-23T17:04:35.479Z,101012.84
2022-09-23T17:07:05.216Z,101023.25
2022-09-23T17:09:32.622Z,101011.22
2022-09-23T17:12:16.542Z,101013.72
2022-09-23T17:14:43.734Z,101010.56
2022-09-23T17:17:13.357Z,101009.91
2022-09-23T17:19:42.799Z,101009.66
2022-09-23T17:22:10.015Z,101010.34
2022-09-23T17:24:39.136Z,101004.03
2022-09-23T17:27:06.125Z,101005.72
2022-09-23T17:29:33.374Z,100996.84
2022-09-23T17:32:00.368Z,101004.47
2022-09-23T17:34:30.107Z,100995.75
2022-09-23T17:36:57.432Z,101002.31
2022-09-23T17:39:29.149Z,101004.47
2022-09-23T17:41:57.482Z,101001.47
2022-09-23T17:44:24.740Z,101005.28
2022-09-23T17:46:52.607Z,100997.28
2022-09-23T17:49:24.171Z,101000.69
2022-09-23T17:51:53.750Z,101002.81
2022-09-23T17:54:23.104Z,101004.53
2022-09-23T17:56:50.118Z,101000.53
2022-09-23T17:59:17.450Z,100999.44
2022-09-23T18:01:46.825Z,101006.03
2022-09-23T18:04:16.251Z,101009.00
2022-09-23T18:06:43.756Z,101006.66
2022-09-23T18:09:13.525Z,101018.06
2022-09-23T18:11:53.406Z,101015.72
2022-09-23T18:14:26.619Z,101011.09
2022-09-23T18:17:01.302Z,101001.41
2022-09-23T18:19:30.485Z,101006.66
2022-09-23T18:21:59.687Z,101009.63
2022-09-23T18:24:34.222Z,101009.84
2022-09-23T18:27:02.535Z,101014.69
2022-09-23T18:29:31.654Z,101005.81
2022-09-23T18:32:03.471Z,101011.31
2022-09-23T18:34:31.174Z,101021.66
2022-09-23T18:37:00.750Z,101006.25
2022-09-23T18:39:29.235Z,101007.09
2022-09-23T18:42:10.417Z,101019.31
2022-09-23T18:44:39.992Z,101014.66
2022-09-23T18:47:07.394Z,101011.72
2022-09-23T18:49:53.874Z,101013.00
2022-09-23T18:52:26.640Z,101010.63
2022-09-23T18:55:01.203Z,101014.22
2022-09-23T18:57:30.871Z,101012.34
2022-09-23T19:00:00.220Z,101012.16
2022-09-23T19:02:27.749Z,101017.63
2022-09-23T19:04:55.125Z,101022.28
2022-09-23T19:07:25.598Z,101017.41
2022-09-23T19:09:59.783Z,101014.03
2022-09-23T19:12:26.787Z,101014.66
2022-09-23T19:14:55.752Z,101014.66
2022-09-23T19:17:23.445Z,101015.09
2022-09-23T19:19:52.547Z,101019.72
2022-09-23T19:22:19.848Z,101019.28
2022-09-23T19:24:47.231Z,101017.16
2022-09-23T19:27:16.742Z,101012.91
2022-09-23T19:29:48.064Z,101011.22
2022-09-23T19:32:15.979Z,101020.47
2022-09-23T19:34:44.334Z,101012.25
2022-09-23T19:37:17.211Z,101017.94
2022-09-23T19:39:44.777Z,101009.53
2022-09-23T19:42:11.642Z,101014.41
2022-09-23T19:44:41.216Z,101018.44
2022-09-23T19:47:15.369Z,101023.06
2022-09-23T19:49:44.732Z,101008.31
2022-09-23T19:52:12.849Z,101007.13
2022-09-23T19:54:40.585Z,101011.31
2022-09-23T19:57:10.469Z,101007.28
2022-09-23T19:59:38.620Z,100994.88
2022-09-23T20:02:06.610Z,100996.50
2022-09-23T20:04:37.269Z,100995.03
2022-09-23T20:07:08.030Z,100989.16
2022-09-23T20:09:36.074Z,100986.28
2022-09-23T20:12:06.174Z,100990.25
2022-09-23T20:14:37.929Z,100986.22
2022-09-23T20:17:04.884Z,100983.28
2022-09-23T20:19:34.218Z,100982.81
2022-09-23T20:22:19.599Z,100979.88
2022-09-23T20:24:46.764Z,100970.63
2022-09-23T20:27:17.039Z,100964.50
2022-09-23T20:29:44.114Z,100971.47
2022-09-23T20:32:13.309Z,100963.97
2022-09-23T20:34:48.722Z,100968.56
2022-09-23T20:37:23.462Z,100963.34
2022-09-23T20:39:54.304Z,100960.41
2022-09-23T20:42:24.361Z,100955.16
2022-09-23T20:44:51.868Z,100961.09
2022-09-23T20:47:19.660Z,100959.41
2022-09-23T20:49:49.760Z,100950.88
2022-09-23T20:52:21.564Z,100954.06
2022-09-23T20:54:51.555Z,100960.53
2022-09-23T20:57:20.246Z,100945.47
2022-09-23T20:59:48.617Z,100943.03
2022-09-23T21:02:16.206Z,100946.84
2022-09-23T21:04:44.409Z,100936.09
2022-09-23T21:07:11.387Z,100945.44
2022-09-23T21:09:38.569Z,100943.94
2022-09-23T21:12:08.112Z,100938.53
2022-09-23T21:14:34.961Z,100938.06
2022-09-23T21:17:04.796Z,100937.50
2022-09-23T21:19:31.879Z,100943.19
2022-09-23T21:22:07.593Z,100943.34
2022-09-23T21:27:38.053Z,100938.03
2022-09-23T21:30:08.003Z,100936.38
2022-09-23T21:32:35.824Z,100928.78
2022-09-23T21:35:02.777Z,100935.91
2022-09-23T21:37:30.797Z,100937.16
2022-09-23T21:40:16.164Z,100934.13
2022-09-23T21:42:43.707Z,100932.59
2022-09-23T21:45:21.085Z,100938.25
2022-09-23T21:47:51.997Z,100935.97
2022-09-23T21:50:21.655Z,100938.31
2022-09-23T21:52:51.974Z,100936.41
2022-09-23T21:55:41.164Z,100940.41
2022-09-23T21:58:16.115Z,100933.16
2022-09-23T22:00:44.931Z,100937.81
2022-09-23T22:03:12.412Z,100938.47
2022-09-23T22:05:44.031Z,100939.50
2022-09-23T22:08:11.200Z,100939.50
2022-09-23T22:10:38.454Z,100939.31
2022-09-23T22:13:12.965Z,100932.94
2022-09-23T22:15:40.232Z,100933.34
2022-09-23T22:18:12.742Z,100936.81
2022-09-23T22:20:44.339Z,100939.00
2022-09-23T22:23:21.452Z,100936.16
2022-09-23T22:26:02.804Z,100933.97
2022-09-23T22:28:51.911Z,100930.44
2022-09-23T22:31:37.588Z,100935.81
2022-09-23T22:34:08.257Z,100931.19
2022-09-23T22:36:40.637Z,100930.56
2022-09-23T22:39:10.088Z,100925.69
2022-09-23T22:41:41.430Z,100927.53
2022-09-23T22:44:08.543Z,100924.09
2022-09-23T22:46:37.610Z,100924.19
2022-09-23T22:49:08.223Z,100924.09
2022-09-23T22:51:35.314Z,100928.28
2022-09-23T22:54:02.490Z,100926.47
2022-09-23T22:56:29.640Z,100935.41
2022-09-23T22:58:57.420Z,100917.66
2022-09-23T23:01:24.462Z,100930.16
2022-09-23T23:03:53.726Z,100919.19
2022-09-23T23:06:22.721Z,100923.03
2022-09-23T23:08:58.603Z,100923.41
2022-09-23T23:11:27.660Z,100920.56
2022-09-23T23:14:01.398Z,100918.47
2022-09-23T23:16:35.078Z,100910.78
2022-09-23T23:19:04.484Z,100912.84
2022-09-23T23:21:31.586Z,100909.31
2022-09-23T23:24:03.800Z,100907.56
2022-09-23T23:26:33.001Z,100900.63
2022-09-23T23:29:03.548Z,100907.28
2022-09-23T23:31:32.250Z,100910.66
2022-09-23T23:33:59.292Z,100909.16
2022-09-23T23:36:26.470Z,100905.53
2022-09-23T23:38:56.472Z,100908.97
2022-09-23T23:41:30.008Z,100907.25
2022-09-23T23:44:00.556Z,100907.72
2022-09-23T23:46:30.451Z,100905.44
2022-09-23T23:49:00.613Z,100906.25
2022-09-23T23:51:28.696Z,100904.09
2022-09-23T23:53:56.163Z,100908.13
2022-09-23T23:56:27.711Z,100899.22
2022-09-23T23:58:57.178Z,100899.31
